TAF KCLT
AMD KCLT 080200Z 0802/0906 11004KT P6SM SCT035 OVC090 FM080800 07002KT 6SM BR VCSH OVC025 TEMPO 0809/0813 4SM -RA BR OVC009 FM081300 01003KT 6SM BR VCSH BKN007 FM081700 34003KT P6SM BKN015 BKN250 FM082100 30003KT P6SM SCT040 SCT250=
METAR KCLT
WC KCLT
WS KCLT
WV KCLT